Monroe, MI

4:16 PM EDT on June 27, 2017 (GMT -0400)
Custer

Weather History for KTTF - March, 2013

Change the Weather History Date:

Tuesday, March 26, 2013

  Actual Average Record
Temperature  
Mean Temperature 40 °F -  
Max Temperature 44 °F 48 °F 78 °F (2007)
Min Temperature 35 °F 30 °F 10 °F (2001)
Degree Days  
Heating Degree Days 26    
Moisture  
Dew Point 30 °F    
Average Humidity 71    
Maximum Humidity 87    
Minimum Humidity 53    
Precipitation  
Precipitation 0.00 in - - ()
Sea Level Pressure  
Sea Level Pressure 30.00 in    
Wind  
Wind Speed 9 mph (NW)    
Max Wind Speed 17 mph    
Max Gust Speed 23 mph    
Visibility 10 miles    
Events Rain    
Averages and records for this station are not official NWS values.
T = Trace of Precipitation, MM = Missing Value Source: NWS Daily Summary

Daily Weather History Graph

Daily Weather History Graph

Search for Another Location

Airport or City:

Trip Planner

Search our weather history database for the weather conditions in past years. The results will help you decide how hot, cold, wet, or windy it might be!

Date:

Astronomy

Mar. 26, 2013 Rise Set
Actual Time 7:26 AM EDT 7:52 PM EDT
Civil Twilight 6:58 AM EDT 8:20 PM EDT
Nautical Twilight 6:25 AM EDT 8:53 PM EDT
Astronomical Twilight 5:51 AM EDT 9:27 PM EDT
Moon 7:28 PM EDT (3/26) 6:42 AM EDT (3/26)
Length of Visible Light 13h 22m
Length of Day
12h 26m
Waxing Gibbous, 99% of the Moon is Illuminated
Mar 26
Waxing Gibbous
Mar 27
Full
Apr 3
Last Quarter
Apr 10
New
Apr 18
First Quarter

Hourly Weather History & Observations

Time (EDT) Temp. Windchill Dew Point Humidity Pressure Visibility Wind Dir Wind Speed Gust Speed Precip Events Conditions
12:12 AM 37.4 °F 32.1 °F 30.2 °F 75% 29.88 in 10.0 mi NNW 6.9 mph - N/A   Overcast
12:52 AM 37.4 °F 32.1 °F 30.2 °F 75% 29.89 in 10.0 mi NNW 6.9 mph - N/A   Overcast
1:12 AM 37.4 °F 30.8 °F 30.2 °F 75% 29.89 in 10.0 mi NNW 9.2 mph - N/A   Overcast
1:32 AM 37.4 °F 32.1 °F 30.2 °F 75% 29.89 in 10.0 mi NW 6.9 mph - N/A   Overcast
1:52 AM 37.4 °F 30.8 °F 28.4 °F 70% 29.90 in 10.0 mi NNW 9.2 mph - N/A   Overcast
2:12 AM 37.4 °F 30.8 °F 28.4 °F 70% 29.90 in 10.0 mi NW 9.2 mph - N/A   Overcast
2:32 AM 35.6 °F 29.2 °F 28.4 °F 75% 29.90 in 10.0 mi NW 8.1 mph - N/A   Overcast
2:53 AM 35.6 °F 28.6 °F 28.4 °F 75% 29.91 in 10.0 mi NW 9.2 mph - N/A   Overcast
3:13 AM 35.6 °F 29.9 °F 28.4 °F 75% 29.91 in 10.0 mi NW 6.9 mph - N/A   Overcast
3:33 AM 35.6 °F 28.6 °F 28.4 °F 75% 29.91 in 10.0 mi NW 9.2 mph - N/A   Overcast
3:53 AM 35.6 °F 29.2 °F 28.4 °F 75% 29.91 in 10.0 mi NW 8.1 mph - N/A   Overcast
4:13 AM 35.6 °F 27.5 °F 28.4 °F 75% 29.91 in 10.0 mi NW 11.5 mph - N/A   Overcast
4:33 AM 35.6 °F 28.6 °F 28.4 °F 75% 29.91 in 10.0 mi NNW 9.2 mph - N/A   Overcast
4:53 AM 35.6 °F 28.6 °F 28.4 °F 75% 29.91 in 10.0 mi NNW 9.2 mph - N/A   Overcast
5:13 AM 35.6 °F 28.6 °F 28.4 °F 75% 29.92 in 10.0 mi NW 9.2 mph - N/A   Overcast
5:34 AM 35.6 °F 28.6 °F 28.4 °F 75% 29.92 in 10.0 mi NW 9.2 mph - N/A   Overcast
5:54 AM 35.6 °F 29.2 °F 28.4 °F 75% 29.93 in 10.0 mi NW 8.1 mph - N/A   Overcast
6:14 AM 35.6 °F 29.2 °F 28.4 °F 75% 29.93 in 10.0 mi NW 8.1 mph - N/A   Overcast
6:34 AM 35.6 °F 29.9 °F 28.4 °F 75% 29.94 in 10.0 mi NW 6.9 mph - N/A   Overcast
6:54 AM 35.6 °F 28.0 °F 28.4 °F 75% 29.95 in 10.0 mi NW 10.4 mph - N/A   Overcast
7:14 AM 35.6 °F 29.2 °F 28.4 °F 75% 29.95 in 10.0 mi NW 8.1 mph - N/A   Overcast
7:34 AM 35.6 °F 29.2 °F 28.4 °F 75% 29.96 in 10.0 mi NW 8.1 mph - N/A   Overcast
7:54 AM 35.6 °F 29.2 °F 28.4 °F 75% 29.97 in 10.0 mi NW 8.1 mph - N/A   Overcast
8:14 AM 35.6 °F 30.7 °F 28.4 °F 75% 29.98 in 10.0 mi NW 5.8 mph - N/A   Overcast
8:34 AM 35.6 °F 29.9 °F 30.2 °F 81% 29.99 in 10.0 mi WNW 6.9 mph - N/A   Overcast
8:55 AM 35.6 °F 29.2 °F 28.4 °F 75% 29.99 in 10.0 mi NW 8.1 mph - N/A   Overcast
9:15 AM 35.6 °F 28.6 °F 30.2 °F 81% 30.00 in 10.0 mi NW 9.2 mph - N/A   Overcast
9:35 AM 35.6 °F 28.0 °F 30.2 °F 81% 30.00 in 10.0 mi NW 10.4 mph - N/A   Overcast
9:55 AM 37.4 °F 30.3 °F 30.2 °F 75% 30.01 in 10.0 mi NW 10.4 mph - N/A   Mostly Cloudy
10:15 AM 37.4 °F 30.3 °F 30.2 °F 75% 30.01 in 10.0 mi NW 10.4 mph - N/A   Mostly Cloudy
10:35 AM 39.2 °F 33.0 °F 30.2 °F 70% 30.01 in 10.0 mi NW 9.2 mph - N/A   Overcast
10:55 AM 39.2 °F 32.0 °F 30.2 °F 70% 30.01 in 10.0 mi NNW 11.5 mph - N/A   Overcast
11:15 AM 41.0 °F 34.3 °F 30.2 °F 65% 30.02 in 10.0 mi NW 11.5 mph - N/A   Overcast
11:35 AM 41.0 °F 35.8 °F 30.2 °F 65% 30.02 in 10.0 mi WNW 8.1 mph - N/A   Overcast
11:56 AM 42.8 °F 37.0 °F 30.2 °F 61% 30.03 in 10.0 mi NW 10.4 mph - N/A   Overcast
12:16 PM 42.8 °F 36.6 °F 30.2 °F 61% 30.03 in 10.0 mi WNW 11.5 mph - N/A   Overcast
12:36 PM 44.6 °F 38.8 °F 33.8 °F 66% 30.03 in 10.0 mi WNW 11.5 mph 17.3 mph N/A   Mostly Cloudy
12:56 PM 44.6 °F 39.2 °F 32.0 °F 61% 30.02 in 10.0 mi NW 10.4 mph 17.3 mph N/A   Scattered Clouds
1:16 PM 42.8 °F 36.6 °F 30.2 °F 61% 30.02 in 10.0 mi WNW 11.5 mph 17.3 mph N/A   Mostly Cloudy
1:36 PM 44.6 °F 38.8 °F 30.2 °F 57% 30.02 in 10.0 mi WNW 11.5 mph - N/A   Mostly Cloudy
1:56 PM 44.6 °F 38.4 °F 30.2 °F 57% 30.02 in 10.0 mi NW 12.7 mph 18.4 mph N/A   Mostly Cloudy
2:11 PM 44.6 °F 38.8 °F 30.2 °F 57% 30.02 in 10.0 mi WNW 11.5 mph 17.3 mph N/A   Overcast
2:51 PM 44.6 °F 40.2 °F 28.4 °F 53% 30.01 in 10.0 mi NW 8.1 mph - N/A   Overcast
3:12 PM 44.6 °F 39.7 °F 28.4 °F 53% 30.01 in 10.0 mi West 9.2 mph - N/A   Overcast
3:32 PM 42.8 °F 36.6 °F 30.2 °F 61% 30.02 in 10.0 mi NW 11.5 mph 19.6 mph N/A Rain Light Rain
3:52 PM 42.8 °F 38.6 °F 30.2 °F 61% 30.02 in 10.0 mi NW 6.9 mph - N/A Rain Light Rain
4:12 PM 42.8 °F 38.0 °F 30.2 °F 61% 30.02 in 10.0 mi NW 8.1 mph - N/A   Overcast
4:52 PM 42.8 °F 35.8 °F 30.2 °F 61% 30.03 in 10.0 mi NW 13.8 mph 19.6 mph N/A   Overcast
5:12 PM 37.4 °F 27.8 °F 32.0 °F 81% 30.04 in 2.5 mi NNW 17.3 mph 23.0 mph N/A Rain Light Rain
5:32 PM 37.4 °F - 33.8 °F 87% 30.04 in 10.0 mi Calm Calm - N/A   Overcast
5:52 PM 39.2 °F - 33.8 °F 81% 30.04 in 10.0 mi Calm Calm - N/A   Overcast
6:13 PM 39.2 °F 35.9 °F 33.8 °F 81% 30.04 in 10.0 mi West 4.6 mph - N/A   Overcast
6:33 PM 41.0 °F 35.2 °F 30.2 °F 65% 30.04 in 10.0 mi NW 9.2 mph - N/A   Overcast
6:53 PM 41.0 °F 34.7 °F 28.4 °F 61% 30.05 in 10.0 mi WNW 10.4 mph 17.3 mph N/A   Overcast
7:13 PM 39.2 °F 33.0 °F 28.4 °F 65% 30.05 in 10.0 mi WNW 9.2 mph - N/A   Overcast
7:33 PM 39.2 °F 34.2 °F 28.4 °F 65% 30.06 in 10.0 mi WNW 6.9 mph - N/A   Overcast
7:53 PM 39.2 °F 33.0 °F 30.2 °F 70% 30.07 in 10.0 mi WNW 9.2 mph - N/A   Overcast
8:13 PM 39.2 °F 33.6 °F 30.2 °F 70% 30.07 in 10.0 mi WNW 8.1 mph - N/A   Overcast
8:33 PM 39.2 °F 33.6 °F 30.2 °F 70% 30.08 in 10.0 mi WNW 8.1 mph - N/A   Overcast
8:53 PM 37.4 °F 31.4 °F 30.2 °F 75% 30.08 in 10.0 mi WNW 8.1 mph - N/A   Overcast
9:14 PM 37.4 °F 30.3 °F 30.2 °F 75% 30.09 in 10.0 mi WNW 10.4 mph - N/A   Overcast
9:34 PM 37.4 °F 31.4 °F 30.2 °F 75% 30.09 in 10.0 mi WNW 8.1 mph - N/A   Overcast
9:54 PM 37.4 °F 32.1 °F 30.2 °F 75% 30.10 in 10.0 mi WNW 6.9 mph - N/A   Overcast
10:14 PM 37.4 °F 31.4 °F 30.2 °F 75% 30.10 in 10.0 mi West 8.1 mph - N/A   Overcast
10:34 PM 37.4 °F 32.1 °F 30.2 °F 75% 30.10 in 10.0 mi WNW 6.9 mph - N/A   Overcast
10:54 PM 35.6 °F 29.9 °F 30.2 °F 81% 30.10 in 10.0 mi West 6.9 mph - N/A   Overcast
11:14 PM 37.4 °F 32.1 °F 30.2 °F 75% 30.10 in 10.0 mi West 6.9 mph - N/A   Overcast
11:34 PM 37.4 °F 31.4 °F 32.0 °F 81% 30.10 in 10.0 mi West 8.1 mph - N/A   Overcast
11:54 PM 37.4 °F 31.4 °F 32.0 °F 81% 30.10 in 10.0 mi West 8.1 mph - N/A   Overcast